»·PEaware :: N515SL KSNA-KCRQ

N515SL :: KSNA-KCRQ

FLIGHT INFORMATION

Flight Status: Arrived
Operator: Privately registered:
United States
More flights under this callsign
Pilot: Doug L. (8712)
Aircraft: CESSNA 340
(C340)
More flights by this aircraft type
Origin: KSNA John Wayne-Orange Co
United States
Destination: KCRQ McClellan-Palomar
United States
More flights between these airports :: More routes between these airports
Route: +V23 OCN
File this flight plan on PilotEdge
Remarks: I-02
Altitude:
(Current/Filed)
5,000ft
Speed:
(Current/Filed)
165kts
Departed: 22-Dec-18 11:52 AM
Arrived: 22-Dec-18 12:24 PM
Distance/Time
Traveled:
44nm/0:32
Distance/Time
To Go:
Arrived

Flight Plot

Page will automatically refresh every two minutes.


Map Options




Map Legend


Flown Route
Filed Route
Departure Airport
Arrival Airport
Navaid (VOR, NDB)
Fix

Horizontal Profiles

Position Reports

Time Latitude Longitude Heading Altitude Ground
Speed
22-Dec-18 11:34 33.672457 -117.867185 208 60ft 0kts
22-Dec-18 11:35 33.672457 -117.867185 208 60ft 0kts
22-Dec-18 11:36 33.672457 -117.867185 208 60ft 0kts
22-Dec-18 11:37 33.672457 -117.867185 208 60ft 0kts
22-Dec-18 11:38 33.672457 -117.867185 208 60ft 0kts
22-Dec-18 11:39 33.672457 -117.867185 208 60ft 0kts
22-Dec-18 11:40 33.672457 -117.867185 208 60ft 0kts
22-Dec-18 11:41 33.672457 -117.867185 208 60ft 0kts
22-Dec-18 11:42 33.672457 -117.867185 208 60ft 0kts
22-Dec-18 11:43 33.672457 -117.867185 208 60ft 0kts
22-Dec-18 11:44 33.672457 -117.867185 208 60ft 0kts
22-Dec-18 11:45 33.672457 -117.867185 208 60ft 0kts
22-Dec-18 11:46 33.672455 -117.867186 208 60ft 0kts
22-Dec-18 11:47 33.673380 -117.866955 6 60ft 11kts
22-Dec-18 11:48 33.676479 -117.865583 27 60ft 15kts
22-Dec-18 11:49 33.679911 -117.863502 317 60ft 3kts
22-Dec-18 11:50 33.680069 -117.863826 297 60ft 6kts
22-Dec-18 11:51 33.664048 -117.873125 190 778ft 112kts
22-Dec-18 11:52 33.626952 -117.881034 188 1994ft 154kts
22-Dec-18 11:53 33.585683 -117.888463 188 3484ft 147kts
22-Dec-18 11:54 33.545087 -117.896229 188 4858ft 157kts
22-Dec-18 11:55 33.499063 -117.904427 186 4973ft 170kts
22-Dec-18 11:56 33.466944 -117.869552 119 4977ft 178kts
22-Dec-18 11:57 33.441883 -117.819876 121 4969ft 169kts
22-Dec-18 11:58 33.418048 -117.772232 118 4973ft 167kts
22-Dec-18 11:59 33.395025 -117.724656 119 4980ft 171kts
22-Dec-18 12:00 33.380085 -117.671347 102 4982ft 170kts
22-Dec-18 12:01 33.369484 -117.616087 102 4976ft 175kts
22-Dec-18 12:02 33.358846 -117.559085 102 4977ft 176kts
22-Dec-18 12:03 33.347879 -117.502013 102 4973ft 177kts
22-Dec-18 12:04 33.336945 -117.444559 102 4974ft 176kts
22-Dec-18 12:05 33.326325 -117.387574 101 4972ft 177kts
22-Dec-18 12:06 33.316869 -117.335309 102 4966ft 178kts
22-Dec-18 12:07 33.307547 -117.284364 102 4964ft 177kts
22-Dec-18 12:08 33.297425 -117.230503 102 4971ft 177kts
22-Dec-18 12:09 33.286682 -117.173997 102 4976ft 176kts
22-Dec-18 12:10 33.275841 -117.118174 102 4972ft 176kts
22-Dec-18 12:11 33.264925 -117.061241 102 4966ft 177kts
22-Dec-18 12:12 33.254375 -117.005021 102 4972ft 172kts
22-Dec-18 12:13 33.243317 -116.948011 103 4975ft 177kts
22-Dec-18 12:14 33.204989 -116.950525 219 4978ft 175kts
22-Dec-18 12:15 33.174530 -116.995717 255 4379ft 185kts
22-Dec-18 12:16 33.164668 -117.054687 260 3542ft 177kts
22-Dec-18 12:17 33.156046 -117.108169 261 3178ft 168kts
22-Dec-18 12:18 33.149157 -117.157280 263 2696ft 118kts
22-Dec-18 12:19 33.142682 -117.192222 257 1807ft 98kts
22-Dec-18 12:20 33.137435 -117.222866 261 1215ft 85kts
22-Dec-18 12:21 33.133144 -117.249913 260 750ft 81kts
22-Dec-18 12:22 33.129077 -117.275343 261 309ft 64kts
22-Dec-18 12:23 33.127554 -117.279825 218 309ft 0kts
22-Dec-18 12:24 33.127083 -117.279834 79 309ft 0kts
22-Dec-18 12:25 33.127083 -117.279834 79 309ft 0kts

Navigation Log

Ident Type
Flight plan parsing failed, navigation log unavailable